KAXX

Details ICAO KAXX
Name ANGEL FIRE
Region United States
Timezone America/Denver (UTC-6.0)
Plans Departing 12
Arriving 14
Stats Elevation 8,380 ft / 2,554 m (AMSL)
Location 36.422000° -105.289905°
Runways 1
Magnetic Variation 8.025° E
Sunrise 2018-05-21 11:51:29 UTC / 2018-05-21 05:51:29 Local
Sunset 2018-05-22 02:06:54 UTC / 2018-05-21 20:06:54 Local
Advertisement - Login to hide

Runways

ID Width Length Bearing (true) Bearing (mag) Surface Threshold Offset Overrun Length
17 100 ft / 30 m 8,918 ft / 2,718 m 181.75° 173.72° Asphalt 0 ft / 0 m 0 ft / 0 m
35 100 ft / 30 m 8,918 ft / 2,718 m 1.74° 353.71° Asphalt 0 ft / 0 m 0 ft / 0 m

Map

Weather


0- 5 10 15 20 25 30 35+ Temperature / ° C

Clouds and Precipitation
Forecast for 2018-05-21 18:00 UTC. Updated 6 hours ago

Ground ~20,000 ft ~40,000 ft Winds

METAR

KAXX 212255Z AUTO 30005KT 10SM SCT045 SCT100 BKN120 11/05 A3024 RMK AO2 T01050053

TAF

Not found

Frequencies

Recorded 118.02 MHz AWOS 3
Approach 132.80 MHz ALBUQUERQUE CNTR
Unicom 122.80 MHz CTAF/UNICOM
Warning: Do not use this data for real-world aviation or navigation. No guarantee of current accuracy is given.